Terminal Aerodrome Forecast
Issued by NWS Bismarck, ND

Home | Current Version | Previous Version | Graphics & Text | Print | Product List | Glossary On
Versions: 1 2 3 4 5 6 7 8 9 10 11 12 13 14 15 16 17 18 19 20
000
FTUS43 KBIS 050528
TAFBIS
TAF
KBIS 050528Z 0506/0606 VRB05KT P6SM SCT100 SCT150
     FM051100 01006KT P6SM SCT080 BKN150
     FM051400 34015KT P6SM VCTS SCT025 BKN060CB
     FM051700 01015KT P6SM -SHRA VCTS SCT025 BKN035CB OVC070
     FM060200 36009KT P6SM BKN035 OVC070=

USA.gov is the U.S. government's official web portal to all federal, state and local government web resources and services.